createdAt,value
2019-03-09T00:00:52.782Z,-4.62
2019-03-09T00:02:02.713Z,-4.76
2019-03-09T00:03:12.646Z,-4.63
2019-03-09T00:04:22.638Z,-4.73
2019-03-09T00:05:32.598Z,-4.79
2019-03-09T00:06:42.524Z,-4.71
2019-03-09T00:07:52.454Z,-4.7
2019-03-09T00:09:02.405Z,-4.73
2019-03-09T00:10:12.483Z,-4.73
2019-03-09T00:11:22.409Z,-4.7
2019-03-09T00:12:32.337Z,-4.63
2019-03-09T00:13:43.530Z,-4.67
2019-03-09T00:14:53.533Z,-4.55
2019-03-09T00:16:03.626Z,-4.55
2019-03-09T00:17:13.617Z,-4.59
2019-03-09T00:18:23.578Z,-4.45
2019-03-09T00:19:33.530Z,-4.47
2019-03-09T00:20:43.465Z,-4.49
2019-03-09T00:21:53.493Z,-4.55
2019-03-09T00:23:03.417Z,-4.55
2019-03-09T00:24:13.645Z,-4.55
2019-03-09T00:25:24.143Z,-4.59
2019-03-09T00:26:35.071Z,-4.45
2019-03-09T00:27:45.349Z,-4.51
2019-03-09T00:28:55.436Z,-4.41
2019-03-09T00:30:05.369Z,-4.49
2019-03-09T00:31:15.323Z,-4.41
2019-03-09T00:32:25.255Z,-4.4
2019-03-09T00:33:35.040Z,-4.44
2019-03-09T00:34:44.979Z,-4.35
2019-03-09T00:35:54.917Z,-4.35
2019-03-09T00:37:04.594Z,-4.26
2019-03-09T00:38:14.526Z,-4.31
2019-03-09T00:39:24.472Z,-4.33
2019-03-09T00:40:34.414Z,-4.33
2019-03-09T00:41:44.340Z,-4.31
2019-03-09T00:42:54.317Z,-4.44
2019-03-09T00:44:04.259Z,-4.42
2019-03-09T00:45:14.258Z,-4.42
2019-03-09T00:46:24.205Z,-4.49
2019-03-09T00:47:34.158Z,-4.58
2019-03-09T00:48:44.099Z,-4.56
2019-03-09T00:49:54.056Z,-4.58
2019-03-09T00:51:04.097Z,-4.61
2019-03-09T00:52:14.032Z,-4.58
2019-03-09T00:53:23.993Z,-4.55
2019-03-09T00:54:33.954Z,-4.55
2019-03-09T00:55:43.884Z,-4.55
2019-03-09T00:56:53.851Z,-4.58
2019-03-09T00:58:03.777Z,-4.71
2019-03-09T00:59:13.724Z,-4.73
2019-03-09T01:00:23.637Z,-4.77
2019-03-09T01:01:33.549Z,-4.76
2019-03-09T01:02:43.510Z,-4.71
2019-03-09T01:03:53.175Z,-4.79
2019-03-09T01:05:03.087Z,-4.73
2019-03-09T01:06:13.005Z,-4.59
2019-03-09T01:07:22.932Z,-4.55
2019-03-09T01:08:32.892Z,-4.56
2019-03-09T01:09:42.856Z,-4.52
2019-03-09T01:10:52.764Z,-4.53
2019-03-09T01:12:02.676Z,-4.51
2019-03-09T01:13:12.603Z,-4.51
2019-03-09T01:14:22.361Z,-4.45
2019-03-09T01:15:32.279Z,-4.34
2019-03-09T01:16:42.204Z,-4.44
2019-03-09T01:17:52.122Z,-4.35
2019-03-09T01:19:02.032Z,-4.17
2019-03-09T01:20:12.008Z,-4.17
2019-03-09T01:21:21.932Z,-3.88
2019-03-09T01:22:31.849Z,-3.65
2019-03-09T01:23:41.767Z,-3.48
2019-03-09T01:24:51.690Z,-3.36
2019-03-09T01:26:01.706Z,-3.25
2019-03-09T01:27:11.644Z,-3.37
2019-03-09T01:28:21.575Z,-3.44
2019-03-09T01:29:31.492Z,-3.41
2019-03-09T01:30:41.403Z,-3.48
2019-03-09T01:31:51.410Z,-3.47
2019-03-09T01:33:01.324Z,-3.5
2019-03-09T01:34:11.256Z,-3.55
2019-03-09T01:35:21.167Z,-3.48
2019-03-09T01:36:30.827Z,-3.5
2019-03-09T01:37:40.790Z,-3.55
2019-03-09T01:38:50.708Z,-3.58
2019-03-09T01:40:00.614Z,-3.64
2019-03-09T01:41:10.525Z,-3.55
2019-03-09T01:42:20.470Z,-3.59
2019-03-09T01:43:30.440Z,-3.51
2019-03-09T01:44:40.352Z,-3.55
2019-03-09T01:45:50.260Z,-3.58
2019-03-09T01:47:00.168Z,-3.61
2019-03-09T01:48:10.086Z,-3.66
2019-03-09T01:49:20.152Z,-3.66
2019-03-09T01:50:30.068Z,-3.69
2019-03-09T01:51:39.978Z,-3.68
2019-03-09T01:52:49.904Z,-3.74
2019-03-09T01:53:59.328Z,-3.69
2019-03-09T01:55:09.340Z,-3.64
2019-03-09T01:56:19.256Z,-3.74
2019-03-09T01:57:29.169Z,-3.71
2019-03-09T01:58:39.080Z,-3.74
2019-03-09T01:59:49.002Z,-3.71
2019-03-09T02:00:59.010Z,-3.71
2019-03-09T02:02:08.926Z,-3.69
2019-03-09T02:03:18.841Z,-3.69
2019-03-09T02:04:28.761Z,-3.75
2019-03-09T02:05:38.669Z,-3.66
2019-03-09T02:06:48.627Z,-3.66
2019-03-09T02:07:58.552Z,-3.64
2019-03-09T02:09:08.461Z,-3.58
2019-03-09T02:10:18.377Z,-3.47
2019-03-09T02:11:28.291Z,-3.37
2019-03-09T02:12:38.302Z,-3.3
2019-03-09T02:13:48.255Z,-3.27
2019-03-09T02:14:58.174Z,-3.2
2019-03-09T02:16:08.144Z,-3.17
2019-03-09T02:17:18.055Z,-3.04
2019-03-09T02:18:28.014Z,-3.09
2019-03-09T02:19:37.924Z,-2.99
2019-03-09T02:20:47.880Z,-2.93
2019-03-09T02:21:57.827Z,-2.9
2019-03-09T02:23:07.753Z,-2.84
2019-03-09T02:24:17.772Z,-2.86
2019-03-09T02:25:27.689Z,-2.86
2019-03-09T02:26:37.647Z,-2.9
2019-03-09T02:27:47.554Z,-2.87
2019-03-09T02:28:57.468Z,-2.98
2019-03-09T02:30:08.815Z,-2.96
2019-03-09T02:31:18.746Z,-3.01
2019-03-09T02:32:28.687Z,-2.99
2019-03-09T02:33:38.624Z,-3.01
2019-03-09T02:34:48.553Z,-2.99
2019-03-09T02:35:58.530Z,-3.04
2019-03-09T02:37:08.490Z,-3.02
2019-03-09T02:38:18.456Z,-2.96
2019-03-09T02:39:28.444Z,-3.04
2019-03-09T02:40:38.400Z,-3.08
2019-03-09T02:41:48.413Z,-3.01
2019-03-09T02:42:58.345Z,-2.94
2019-03-09T02:44:08.295Z,-2.99
2019-03-09T02:45:18.260Z,-2.99
2019-03-09T02:46:28.257Z,-2.94
2019-03-09T02:47:37.745Z,-2.99
2019-03-09T02:48:47.708Z,-3.01
2019-03-09T02:49:58.575Z,-2.94
2019-03-09T02:51:08.577Z,-2.96
2019-03-09T02:52:18.500Z,-2.99
2019-03-09T02:53:28.528Z,-2.96
2019-03-09T02:54:38.467Z,-2.98
2019-03-09T02:55:48.452Z,-2.99
2019-03-09T02:56:58.430Z,-2.96
2019-03-09T02:58:08.409Z,-2.94
2019-03-09T02:59:18.448Z,-2.87
2019-03-09T03:00:28.373Z,-2.99
2019-03-09T03:01:38.300Z,-3.02
2019-03-09T03:02:48.009Z,-2.99
2019-03-09T03:03:57.958Z,-2.99
2019-03-09T03:05:07.976Z,-3.05
2019-03-09T03:06:17.899Z,-3.07
2019-03-09T03:07:27.858Z,-3.04
2019-03-09T03:08:37.795Z,-3.04
2019-03-09T03:09:47.721Z,-3.11
2019-03-09T03:10:57.745Z,-3.02
2019-03-09T03:12:07.708Z,-3.11
2019-03-09T03:13:17.635Z,-3.12
2019-03-09T03:14:27.594Z,-3.09
2019-03-09T03:15:37.666Z,-3.12
2019-03-09T03:16:47.704Z,-3.14
2019-03-09T03:17:57.650Z,-3.12
2019-03-09T03:19:07.352Z,-3.2
2019-03-09T03:20:17.301Z,-3.15
2019-03-09T03:21:27.278Z,-3.19
2019-03-09T03:22:37.270Z,-3.25
2019-03-09T03:23:47.191Z,-3.15
2019-03-09T03:24:56.865Z,-3.2
2019-03-09T03:26:06.798Z,-3.25
2019-03-09T03:27:16.757Z,-3.19
2019-03-09T03:28:26.787Z,-3.25
2019-03-09T03:29:36.720Z,-3.14
2019-03-09T03:30:46.675Z,-3.14
2019-03-09T03:31:56.443Z,-3.12
2019-03-09T03:33:06.293Z,-3.09
2019-03-09T03:34:16.416Z,-3.08
2019-03-09T03:35:26.468Z,-3.12
2019-03-09T03:36:36.399Z,-3.05
2019-03-09T03:37:46.366Z,-3.05
2019-03-09T03:38:56.048Z,-3.01
2019-03-09T03:40:06.080Z,-3.01
2019-03-09T03:41:16.014Z,-2.96
2019-03-09T03:42:25.966Z,-2.94
2019-03-09T03:43:35.895Z,-2.99
2019-03-09T03:44:45.895Z,-2.93
2019-03-09T03:45:55.905Z,-2.94
2019-03-09T03:47:05.850Z,-3.02
2019-03-09T03:48:15.778Z,-2.9
2019-03-09T03:49:25.706Z,-2.99
2019-03-09T03:50:35.640Z,-2.96
2019-03-09T03:51:45.573Z,-2.89
2019-03-09T03:52:55.700Z,-2.93
2019-03-09T03:54:05.382Z,-2.98
2019-03-09T03:55:15.405Z,-2.98
2019-03-09T03:56:25.353Z,-2.98
2019-03-09T03:57:35.305Z,-2.96
2019-03-09T03:58:44.979Z,-2.91
2019-03-09T03:59:54.943Z,-2.96
2019-03-09T04:01:04.869Z,-2.81
2019-03-09T04:02:14.886Z,-2.89
2019-03-09T04:03:24.921Z,-2.81
2019-03-09T04:04:34.854Z,-2.7
2019-03-09T04:05:44.788Z,-2.68
2019-03-09T04:06:54.811Z,-2.69
2019-03-09T04:08:04.820Z,-2.66
2019-03-09T04:09:14.553Z,-2.68
2019-03-09T04:10:24.542Z,-2.65
2019-03-09T04:11:34.475Z,-2.61
2019-03-09T04:12:44.403Z,-2.58
2019-03-09T04:13:54.340Z,-2.61
2019-03-09T04:15:04.369Z,-2.65
2019-03-09T04:16:14.039Z,-2.61
2019-03-09T04:17:24.028Z,-2.65
2019-03-09T04:18:33.733Z,-2.69
2019-03-09T04:19:43.786Z,-2.72
2019-03-09T04:20:53.816Z,-2.96
2019-03-09T04:22:03.756Z,-2.99
2019-03-09T04:23:13.683Z,-3.01
2019-03-09T04:24:23.371Z,-3.04
2019-03-09T04:25:33.307Z,-3.15
2019-03-09T04:26:43.285Z,-3.07
2019-03-09T04:27:53.222Z,-3.27
2019-03-09T04:29:03.143Z,-3.29
2019-03-09T04:30:13.081Z,-3.37
2019-03-09T04:31:23.019Z,-3.44
2019-03-09T04:32:33.050Z,-3.61
2019-03-09T04:33:42.974Z,-3.56
2019-03-09T04:34:52.910Z,-3.68
2019-03-09T04:36:02.835Z,-3.77
2019-03-09T04:37:12.758Z,-3.9
2019-03-09T04:38:22.780Z,-3.88
2019-03-09T04:39:32.743Z,-4.01
2019-03-09T04:40:42.656Z,-3.98
2019-03-09T04:41:52.568Z,-4.09
2019-03-09T04:43:02.493Z,-4.12
2019-03-09T04:44:12.406Z,-4.17
2019-03-09T04:45:22.314Z,-4.27
2019-03-09T04:46:32.235Z,-4.31
2019-03-09T04:47:42.142Z,-4.4
2019-03-09T04:48:52.055Z,-4.49
2019-03-09T04:50:02.122Z,-4.47
2019-03-09T04:51:12.040Z,-4.51
2019-03-09T04:52:21.958Z,-4.42
2019-03-09T04:53:31.871Z,-4.52
2019-03-09T04:54:41.790Z,-4.58
2019-03-09T04:55:51.715Z,-4.52
2019-03-09T04:57:01.372Z,-4.56
2019-03-09T04:58:11.282Z,-4.56
2019-03-09T04:59:21.192Z,-4.56
2019-03-09T05:00:31.116Z,-4.77
2019-03-09T05:01:41.130Z,-4.74
2019-03-09T05:02:51.040Z,-4.77
2019-03-09T05:04:00.962Z,-4.79
2019-03-09T05:05:10.633Z,-4.74
2019-03-09T05:06:20.625Z,-4.74
2019-03-09T05:07:30.588Z,-4.84
2019-03-09T05:08:40.508Z,-4.88
2019-03-09T05:09:50.420Z,-4.83
2019-03-09T05:11:00.341Z,-4.87
2019-03-09T05:12:10.253Z,-4.9
2019-03-09T05:13:20.268Z,-4.91
2019-03-09T05:14:30.226Z,-5.01
2019-03-09T05:15:40.171Z,-5.08
2019-03-09T05:16:50.082Z,-5
2019-03-09T05:18:00.014Z,-5.12
2019-03-09T05:19:10.027Z,-5.05
2019-03-09T05:20:19.939Z,-5.13
2019-03-09T05:21:29.851Z,-5.16
2019-03-09T05:22:39.768Z,-5.1
2019-03-09T05:23:49.679Z,-5.16
2019-03-09T05:24:59.694Z,-5.12
2019-03-09T05:26:09.614Z,-5.17
2019-03-09T05:27:19.526Z,-5.19
2019-03-09T05:28:29.436Z,-5.27
2019-03-09T05:29:39.376Z,-5.25
2019-03-09T05:30:49.344Z,-5.34
2019-03-09T05:31:59.252Z,-5.31
2019-03-09T05:33:09.923Z,-5.34
2019-03-09T05:34:19.847Z,-5.43
2019-03-09T05:35:29.763Z,-5.45
2019-03-09T05:36:39.770Z,-5.52
2019-03-09T05:37:49.689Z,-5.53
2019-03-09T05:38:59.621Z,-5.56
2019-03-09T05:40:09.586Z,-5.81
2019-03-09T05:41:19.507Z,-5.81
2019-03-09T05:42:29.470Z,-5.78
2019-03-09T05:43:39.393Z,-5.85
2019-03-09T05:44:49.303Z,-5.81
2019-03-09T05:45:59.219Z,-5.85
2019-03-09T05:47:09.149Z,-5.85
2019-03-09T05:48:19.171Z,-5.81
2019-03-09T05:49:29.084Z,-5.81
2019-03-09T05:50:39.006Z,-5.73
2019-03-09T05:51:48.926Z,-5.77
2019-03-09T05:52:58.841Z,-5.77
2019-03-09T05:54:08.817Z,-5.73
2019-03-09T05:55:18.743Z,-5.66
2019-03-09T05:56:28.656Z,-5.71
2019-03-09T05:57:38.629Z,-5.67
2019-03-09T05:58:48.539Z,-5.64
2019-03-09T05:59:58.559Z,-5.6
2019-03-09T06:01:08.472Z,-5.73
2019-03-09T06:02:18.387Z,-5.71
2019-03-09T06:03:28.307Z,-5.74
2019-03-09T06:04:38.217Z,-5.68
2019-03-09T06:05:48.233Z,-5.73
2019-03-09T06:06:58.188Z,-5.68
2019-03-09T06:08:08.108Z,-5.84
2019-03-09T06:09:18.019Z,-5.85
2019-03-09T06:10:27.933Z,-5.88
2019-03-09T06:11:38.162Z,-5.88
2019-03-09T06:12:48.072Z,-6.03
2019-03-09T06:13:57.985Z,-6.02
2019-03-09T06:15:07.959Z,-6.05
2019-03-09T06:16:17.628Z,-6.1
2019-03-09T06:17:27.592Z,-6.05
2019-03-09T06:18:37.507Z,-6.09
2019-03-09T06:19:47.426Z,-6.02
2019-03-09T06:20:57.391Z,-6.05
2019-03-09T06:22:07.335Z,-6.06
2019-03-09T06:23:17.297Z,-6.09
2019-03-09T06:24:27.205Z,-6.15
2019-03-09T06:25:38.602Z,-6.1
2019-03-09T06:26:48.663Z,-6.13
2019-03-09T06:27:58.590Z,-6.06
2019-03-09T06:29:08.604Z,-6.05
2019-03-09T06:30:18.514Z,-6.07
2019-03-09T06:31:28.431Z,-6.1
2019-03-09T06:32:38.343Z,-5.94
2019-03-09T06:33:48.009Z,-5.92
2019-03-09T06:34:57.926Z,-5.94
2019-03-09T06:36:07.990Z,-5.87
2019-03-09T06:37:17.914Z,-5.91
2019-03-09T06:38:27.828Z,-5.84
2019-03-09T06:39:37.749Z,-5.81
2019-03-09T06:40:47.562Z,-5.81
2019-03-09T06:41:57.239Z,-5.81
2019-03-09T06:43:07.341Z,-5.81
2019-03-09T06:44:17.259Z,-5.82
2019-03-09T06:45:27.176Z,-5.73
2019-03-09T06:46:37.221Z,-5.66
2019-03-09T06:47:47.147Z,-5.6
2019-03-09T06:48:57.062Z,-5.58
2019-03-09T06:50:06.972Z,-5.56
2019-03-09T06:51:16.887Z,-5.48
2019-03-09T06:52:26.940Z,-5.43
2019-03-09T06:53:36.850Z,-5.39
2019-03-09T06:54:46.762Z,-5.39
2019-03-09T06:55:56.674Z,-5.35
2019-03-09T06:57:15.851Z,-5.39
2019-03-09T06:58:25.866Z,-5.23
2019-03-09T06:59:35.775Z,-5.2
2019-03-09T07:00:45.688Z,-5.25
2019-03-09T07:01:55.603Z,-5.25
2019-03-09T07:03:05.517Z,-5.32
2019-03-09T07:04:15.536Z,-5.25
2019-03-09T07:05:25.454Z,-5.23
2019-03-09T07:06:35.370Z,-5.23
2019-03-09T07:07:45.280Z,-5.25
2019-03-09T07:08:55.204Z,-5.1
2019-03-09T07:10:05.215Z,-5.25
2019-03-09T07:11:15.142Z,-5.21
2019-03-09T07:12:25.055Z,-5.2
2019-03-09T07:13:34.970Z,-5.3
2019-03-09T07:14:44.919Z,-5.28
2019-03-09T07:15:54.931Z,-5.28
2019-03-09T07:17:04.846Z,-5.23
2019-03-09T07:18:14.778Z,-5.27
2019-03-09T07:19:24.729Z,-5.28
2019-03-09T07:20:34.645Z,-5.21
2019-03-09T07:21:44.657Z,-5.27
2019-03-09T07:22:54.572Z,-5.27
2019-03-09T07:24:04.491Z,-5.31
2019-03-09T07:25:14.404Z,-5.3
2019-03-09T07:26:24.374Z,-5.3
2019-03-09T07:27:34.042Z,-5.38
2019-03-09T07:28:43.956Z,-5.35
2019-03-09T07:29:53.872Z,-5.34
2019-03-09T07:31:03.789Z,-5.27
2019-03-09T07:32:13.700Z,-5.32
2019-03-09T07:33:23.721Z,-5.3
2019-03-09T07:34:33.632Z,-5.23
2019-03-09T07:35:43.541Z,-5.32
2019-03-09T07:36:53.454Z,-5.28
2019-03-09T07:38:03.372Z,-5.31
2019-03-09T07:39:13.337Z,-5.34
2019-03-09T07:40:23.253Z,-5.34
2019-03-09T07:41:33.171Z,-5.39
2019-03-09T07:42:43.086Z,-5.38
2019-03-09T07:43:52.747Z,-5.46
2019-03-09T07:45:02.766Z,-5.48
2019-03-09T07:46:12.676Z,-5.56
2019-03-09T07:47:22.591Z,-5.58
2019-03-09T07:48:32.557Z,-5.6
2019-03-09T07:49:42.246Z,-5.6
2019-03-09T07:50:52.168Z,-5.53
2019-03-09T07:52:01.837Z,-5.5
2019-03-09T07:53:11.752Z,-5.46
2019-03-09T07:54:21.669Z,-5.5
2019-03-09T07:55:31.601Z,-5.45
2019-03-09T07:56:41.563Z,-5.45
2019-03-09T07:57:51.228Z,-5.31
2019-03-09T07:59:01.145Z,-5.28
2019-03-09T08:00:10.815Z,-5.16
2019-03-09T08:01:20.727Z,-5.13
2019-03-09T08:02:31.704Z,-4.98
2019-03-09T08:03:41.623Z,-4.97
2019-03-09T08:04:51.548Z,-4.95
2019-03-09T08:06:01.466Z,-4.81
2019-03-09T08:07:11.383Z,-4.91
2019-03-09T08:08:22.510Z,-4.92
2019-03-09T08:09:32.462Z,-4.84
2019-03-09T08:10:42.379Z,-4.79
2019-03-09T08:11:52.292Z,-4.77
2019-03-09T08:13:02.213Z,-4.88
2019-03-09T08:14:12.194Z,-4.71
2019-03-09T08:15:22.106Z,-4.77
2019-03-09T08:16:40.599Z,-4.71
2019-03-09T08:17:50.516Z,-4.88
2019-03-09T08:19:01.170Z,-4.81
2019-03-09T08:20:11.230Z,-4.73
2019-03-09T08:21:21.169Z,-4.74
2019-03-09T08:22:31.110Z,-4.77
2019-03-09T08:23:41.035Z,-4.74
2019-03-09T08:24:50.978Z,-4.8
2019-03-09T08:26:00.913Z,-4.88
2019-03-09T08:27:10.855Z,-4.83
2019-03-09T08:28:21.468Z,-4.87
2019-03-09T08:29:31.169Z,-4.79
2019-03-09T08:30:41.137Z,-4.83
2019-03-09T08:31:51.103Z,-4.8
2019-03-09T08:33:01.074Z,-4.88
2019-03-09T08:34:11.042Z,-4.92
2019-03-09T08:35:20.997Z,-4.95
2019-03-09T08:36:30.957Z,-4.91
2019-03-09T08:37:42.724Z,-4.91
2019-03-09T08:38:52.722Z,-5.06
2019-03-09T08:40:02.856Z,-4.95
2019-03-09T08:41:12.816Z,-5.02
2019-03-09T08:42:22.798Z,-5.1
2019-03-09T08:43:32.783Z,-5.08
2019-03-09T08:44:42.779Z,-5.1
2019-03-09T08:45:52.776Z,-5.13
2019-03-09T08:47:02.726Z,-5.19
2019-03-09T08:48:12.689Z,-5.1
2019-03-09T08:49:22.789Z,-5.19
2019-03-09T08:50:32.822Z,-5.2
2019-03-09T08:51:42.807Z,-5.16
2019-03-09T08:52:52.832Z,-5.08
2019-03-09T08:54:02.869Z,-5.16
2019-03-09T08:55:13.013Z,-5.1
2019-03-09T08:56:25.485Z,-5.05
2019-03-09T08:57:35.486Z,-5.05
2019-03-09T08:58:45.490Z,-5.01
2019-03-09T08:59:55.502Z,-4.91
2019-03-09T09:01:05.830Z,-4.94
2019-03-09T09:02:15.867Z,-4.9
2019-03-09T09:03:25.823Z,-4.88
2019-03-09T09:04:37.211Z,-4.88
2019-03-09T09:05:47.136Z,-4.77
2019-03-09T09:06:57.073Z,-4.69
2019-03-09T09:08:08.836Z,-4.7
2019-03-09T09:09:18.784Z,-4.59
2019-03-09T09:10:28.801Z,-4.55
2019-03-09T09:11:38.756Z,-4.45
2019-03-09T09:12:50.491Z,-4.44
2019-03-09T09:14:00.420Z,-4.4
2019-03-09T09:15:10.342Z,-4.4
2019-03-09T09:16:22.335Z,-4.27
2019-03-09T09:17:32.254Z,-4.16
2019-03-09T09:18:42.278Z,-4.17
2019-03-09T09:19:52.229Z,-4.17
2019-03-09T09:21:02.145Z,-4.05
2019-03-09T09:22:12.065Z,-3.94
2019-03-09T09:23:22.027Z,-3.91
2019-03-09T09:24:31.944Z,-3.68
2019-03-09T09:25:41.870Z,-3.58
2019-03-09T09:26:51.788Z,-3.46
2019-03-09T09:28:01.726Z,-3.4
2019-03-09T09:29:11.652Z,-3.26
2019-03-09T09:30:21.568Z,-3.19
2019-03-09T09:31:31.492Z,-3.15
2019-03-09T09:32:41.408Z,-3.04
2019-03-09T09:33:51.328Z,-2.94
2019-03-09T09:35:03.629Z,-2.93
2019-03-09T09:36:13.573Z,-2.87
2019-03-09T09:37:23.488Z,-2.7
2019-03-09T09:38:33.398Z,-2.68
2019-03-09T09:39:43.316Z,-2.5
2019-03-09T09:40:53.282Z,-2.39
2019-03-09T09:42:04.507Z,-2.26
2019-03-09T09:43:14.176Z,-2.28
2019-03-09T09:44:24.095Z,-2.25
2019-03-09T09:45:34.011Z,-2.29
2019-03-09T09:46:43.937Z,-2.14
2019-03-09T09:47:53.956Z,-2.25
2019-03-09T09:49:03.676Z,-2.13
2019-03-09T09:50:13.623Z,-2.08
2019-03-09T09:51:23.610Z,-1.99
2019-03-09T09:52:33.527Z,-1.92
2019-03-09T09:53:43.443Z,-1.86
2019-03-09T09:54:53.361Z,-1.86
2019-03-09T09:56:03.355Z,-1.89
2019-03-09T09:57:13.270Z,-1.9
2019-03-09T09:58:23.186Z,-1.93
2019-03-09T09:59:33.106Z,-1.79
2019-03-09T10:00:43.048Z,-1.72
2019-03-09T10:01:52.968Z,-1.68
2019-03-09T10:03:02.887Z,-1.61
2019-03-09T10:04:12.810Z,-1.46
2019-03-09T10:05:22.832Z,-1.45
2019-03-09T10:06:32.766Z,-1.29
2019-03-09T10:07:42.690Z,-1.25
2019-03-09T10:08:52.620Z,-1.19
2019-03-09T10:10:02.679Z,-1.11
2019-03-09T10:11:12.708Z,-0.99
2019-03-09T10:12:22.632Z,-0.96
2019-03-09T10:13:32.546Z,-0.97
2019-03-09T10:14:42.210Z,-0.82
2019-03-09T10:15:52.164Z,-0.85
2019-03-09T10:17:01.928Z,-1
2019-03-09T10:18:11.843Z,-1.19
2019-03-09T10:19:21.762Z,-1.21
2019-03-09T10:20:31.681Z,-1.36
2019-03-09T10:21:41.601Z,-1.48
2019-03-09T10:22:51.634Z,-1.27
2019-03-09T10:24:11.673Z,-1.39
2019-03-09T10:25:21.345Z,-1.53
2019-03-09T10:26:31.603Z,-1.45
2019-03-09T10:27:41.526Z,-1.42
2019-03-09T10:28:51.580Z,-1.5
2019-03-09T10:30:01.499Z,-1.51
2019-03-09T10:31:11.414Z,-1.68
2019-03-09T10:32:21.334Z,-1.53
2019-03-09T10:33:31.251Z,-1.61
2019-03-09T10:34:41.277Z,-1.61
2019-03-09T10:35:51.206Z,-1.6
2019-03-09T10:37:01.134Z,-1.61
2019-03-09T10:38:11.053Z,-1.57
2019-03-09T10:39:20.969Z,-1.56
2019-03-09T10:40:30.886Z,-1.48
2019-03-09T10:41:40.808Z,-1.68
2019-03-09T10:42:50.747Z,-1.82
2019-03-09T10:44:00.663Z,-1.86
2019-03-09T10:45:10.581Z,-1.89
2019-03-09T10:46:20.499Z,-1.94
2019-03-09T10:47:30.421Z,-1.97
2019-03-09T10:48:40.346Z,-2
2019-03-09T10:49:50.268Z,-2.18
2019-03-09T10:50:59.937Z,-2.26
2019-03-09T10:52:09.971Z,-2.36
2019-03-09T10:53:19.890Z,-2.39
2019-03-09T10:54:38.332Z,-2.45
2019-03-09T10:55:48.252Z,-2.42
2019-03-09T10:56:58.171Z,-2.47
2019-03-09T10:58:08.198Z,-2.58
2019-03-09T10:59:18.126Z,-2.75
2019-03-09T11:00:28.044Z,-2.91
2019-03-09T11:01:38.002Z,-2.91
2019-03-09T11:02:47.919Z,-2.99
2019-03-09T11:03:57.836Z,-3.15
2019-03-09T11:05:07.820Z,-3.11
2019-03-09T11:06:17.738Z,-3.08
2019-03-09T11:07:27.677Z,-3.2
2019-03-09T11:08:37.614Z,-3.22
2019-03-09T11:09:49.119Z,-3.25
2019-03-09T11:10:58.784Z,-3.43
2019-03-09T11:12:08.718Z,-3.44
2019-03-09T11:13:18.639Z,-3.36
2019-03-09T11:14:28.552Z,-3.43
2019-03-09T11:15:40.303Z,-3.58
2019-03-09T11:16:50.269Z,-3.75
2019-03-09T11:18:00.204Z,-3.81
2019-03-09T11:19:10.122Z,-3.85
2019-03-09T11:20:20.136Z,-3.94
2019-03-09T11:21:30.071Z,-3.91
2019-03-09T11:22:39.994Z,-3.85
2019-03-09T11:23:50.270Z,-3.99
2019-03-09T11:25:08.134Z,-4.17
2019-03-09T11:26:18.055Z,-4.04
2019-03-09T11:27:28.075Z,-4.06
2019-03-09T11:28:37.993Z,-4.19
2019-03-09T11:29:47.911Z,-4.14
2019-03-09T11:30:57.831Z,-4.14
2019-03-09T11:32:07.767Z,-4.16
2019-03-09T11:33:17.686Z,-4.17
2019-03-09T11:34:27.605Z,-4.26
2019-03-09T11:35:37.780Z,-4.17
2019-03-09T11:36:47.703Z,-4.23
2019-03-09T11:37:57.636Z,-4.13
2019-03-09T11:39:07.593Z,-4.16
2019-03-09T11:40:17.502Z,-4.17
2019-03-09T11:41:27.425Z,-4.2
2019-03-09T11:42:37.339Z,-4.13
2019-03-09T11:43:47.257Z,-4.16
2019-03-09T11:44:57.170Z,-4.09
2019-03-09T11:46:07.089Z,-3.96
2019-03-09T11:47:17.004Z,-3.9
2019-03-09T11:48:26.933Z,-3.9
2019-03-09T11:49:36.617Z,-3.95
2019-03-09T11:50:46.632Z,-3.88
2019-03-09T11:51:56.296Z,-3.77
2019-03-09T11:53:06.211Z,-3.91
2019-03-09T11:54:16.127Z,-3.77
2019-03-09T11:55:26.041Z,-3.78
2019-03-09T11:56:36.057Z,-3.65
2019-03-09T11:57:45.983Z,-3.62
2019-03-09T11:58:55.903Z,-3.44
2019-03-09T12:00:05.831Z,-3.3
2019-03-09T12:01:15.797Z,-3.19
2019-03-09T12:02:25.710Z,-2.99
2019-03-09T12:03:47.321Z,-2.76
2019-03-09T12:04:57.399Z,-2.62
2019-03-09T12:06:07.313Z,-2.42
2019-03-09T12:07:17.235Z,-2.42
2019-03-09T12:08:27.152Z,-2.39
2019-03-09T12:09:37.067Z,-2.32
2019-03-09T12:10:46.980Z,-2.29
2019-03-09T12:11:56.901Z,-2.26
2019-03-09T12:13:06.922Z,-2.32
2019-03-09T12:14:16.840Z,-2.26
2019-03-09T12:15:26.762Z,-2.18
2019-03-09T12:16:36.691Z,-2.17
2019-03-09T12:17:46.611Z,-2
2019-03-09T12:18:58.325Z,-1.92
2019-03-09T12:20:08.248Z,-1.82
2019-03-09T12:21:18.185Z,-1.84
2019-03-09T12:22:28.110Z,-1.66
2019-03-09T12:23:38.043Z,-1.42
2019-03-09T12:24:47.968Z,-1.33
2019-03-09T12:25:57.886Z,-1.21
2019-03-09T12:27:07.822Z,-1.14
2019-03-09T12:28:17.735Z,-0.96
2019-03-09T12:29:27.666Z,-0.82
2019-03-09T12:30:37.688Z,-0.72
2019-03-09T12:31:47.609Z,-0.6
2019-03-09T12:32:57.285Z,-0.45
2019-03-09T12:34:07.204Z,-0.38
2019-03-09T12:35:17.125Z,-0.38
2019-03-09T12:36:27.145Z,-0.36
2019-03-09T12:37:37.065Z,-0.41
2019-03-09T12:38:47.121Z,-0.38
2019-03-09T12:39:57.100Z,-0.2
2019-03-09T12:41:07.063Z,-0.17
2019-03-09T12:42:16.756Z,-0.15
2019-03-09T12:43:26.689Z,-0.2
2019-03-09T12:44:36.613Z,-0.24
2019-03-09T12:45:46.543Z,-0.31
2019-03-09T12:46:56.468Z,-0.35
2019-03-09T12:48:06.388Z,-0.3
2019-03-09T12:49:16.337Z,-0.28
2019-03-09T12:50:26.279Z,-0.17
2019-03-09T12:51:36.203Z,-0.12
2019-03-09T12:52:46.125Z,0.02
2019-03-09T12:53:56.204Z,0.12
2019-03-09T12:55:05.876Z,0.09
2019-03-09T12:56:15.797Z,0.18
2019-03-09T12:57:25.732Z,0.3
2019-03-09T12:58:35.687Z,0.16
2019-03-09T12:59:45.714Z,0.08
2019-03-09T13:00:55.638Z,0
2019-03-09T13:02:05.564Z,-0.03
2019-03-09T13:03:15.483Z,0.16
2019-03-09T13:04:25.429Z,0.05
2019-03-09T13:05:35.352Z,-0.07
2019-03-09T13:06:45.028Z,-0.15
2019-03-09T13:07:54.981Z,-0.46
2019-03-09T13:09:04.909Z,-0.53
2019-03-09T13:10:14.840Z,-0.74
2019-03-09T13:11:24.877Z,-0.85
2019-03-09T13:12:34.804Z,-1.06
2019-03-09T13:13:44.748Z,-1.22
2019-03-09T13:14:54.665Z,-1.19
2019-03-09T13:16:04.334Z,-1.21
2019-03-09T13:17:14.290Z,-1.17
2019-03-09T13:18:23.958Z,-1.18
2019-03-09T13:19:33.882Z,-1.33
2019-03-09T13:20:43.810Z,-1.45
2019-03-09T13:21:53.739Z,-1.32
2019-03-09T13:23:03.660Z,-1.45
2019-03-09T13:24:13.586Z,-1.45
2019-03-09T13:25:23.504Z,-1.4
2019-03-09T13:26:33.436Z,-1.57
2019-03-09T13:27:43.363Z,-1.57
2019-03-09T13:28:53.278Z,-1.68
2019-03-09T13:30:03.218Z,-1.69
2019-03-09T13:31:13.150Z,-1.72
2019-03-09T13:32:23.072Z,-1.84
2019-03-09T13:33:32.994Z,-1.93
2019-03-09T13:34:42.944Z,-1.97
2019-03-09T13:35:52.874Z,-1.92
2019-03-09T13:37:02.864Z,-1.92
2019-03-09T13:38:12.810Z,-1.93
2019-03-09T13:39:22.733Z,-1.93
2019-03-09T13:40:32.654Z,-1.87
2019-03-09T13:41:42.583Z,-1.86
2019-03-09T13:42:52.503Z,-1.9
2019-03-09T13:44:02.436Z,-1.92
2019-03-09T13:45:12.352Z,-1.9
2019-03-09T13:46:22.368Z,-1.92
2019-03-09T13:47:32.042Z,-1.94
2019-03-09T13:48:41.712Z,-1.92
2019-03-09T13:49:51.378Z,-1.94
2019-03-09T13:51:01.299Z,-2.05
2019-03-09T13:52:11.316Z,-1.97
2019-03-09T13:53:21.242Z,-2.08
2019-03-09T13:54:31.163Z,-1.96
2019-03-09T13:55:41.090Z,-2.04
2019-03-09T13:56:51.063Z,-2.04
2019-03-09T13:58:01.019Z,-1.96
2019-03-09T13:59:10.945Z,-2
2019-03-09T14:00:20.865Z,-1.97
2019-03-09T14:01:30.791Z,-1.92
2019-03-09T14:02:40.752Z,-1.92
2019-03-09T14:03:50.741Z,-1.87
2019-03-09T14:05:00.712Z,-1.82
2019-03-09T14:06:10.628Z,-1.69
2019-03-09T14:07:20.553Z,-1.63
2019-03-09T14:08:30.471Z,-1.61
2019-03-09T14:09:40.502Z,-1.57
2019-03-09T14:10:50.419Z,-1.68
2019-03-09T14:12:00.334Z,-1.57
2019-03-09T14:13:10.253Z,-1.53
2019-03-09T14:14:20.170Z,-1.46
2019-03-09T14:15:30.143Z,-1.48
2019-03-09T14:16:40.067Z,-1.46
2019-03-09T14:17:50.011Z,-1.42
2019-03-09T14:18:59.933Z,-1.35
2019-03-09T14:20:09.867Z,-1.42
2019-03-09T14:21:19.794Z,-1.4
2019-03-09T14:22:29.713Z,-1.35
2019-03-09T14:23:39.635Z,-1.35
2019-03-09T14:24:49.304Z,-1.32
2019-03-09T14:25:59.225Z,-1.3
2019-03-09T14:27:09.252Z,-1.27
2019-03-09T14:28:20.530Z,-1.24
2019-03-09T14:29:30.448Z,-1.19
2019-03-09T14:30:40.375Z,-1.03
2019-03-09T14:31:50.344Z,-0.91
2019-03-09T14:33:00.258Z,-0.91
2019-03-09T14:34:10.177Z,-0.67
2019-03-09T14:35:20.115Z,-0.72
2019-03-09T14:36:30.046Z,-0.53
2019-03-09T14:37:39.965Z,-0.59
2019-03-09T14:38:49.991Z,-0.42
2019-03-09T14:39:59.925Z,-0.49
2019-03-09T14:41:09.857Z,-0.39
2019-03-09T14:42:19.777Z,-0.33
2019-03-09T14:43:29.699Z,-0.2
2019-03-09T14:44:39.719Z,-0.2
2019-03-09T14:45:49.635Z,-0.31
2019-03-09T14:46:59.550Z,-0.35
2019-03-09T14:48:09.484Z,-0.44
2019-03-09T14:49:19.404Z,-0.45
2019-03-09T14:50:29.427Z,-0.48
2019-03-09T14:51:39.347Z,-0.51
2019-03-09T14:52:49.015Z,-0.49
2019-03-09T14:53:58.934Z,-0.56
2019-03-09T14:55:08.861Z,-0.54
2019-03-09T14:56:18.937Z,-0.51
2019-03-09T14:57:28.866Z,-0.51
2019-03-09T14:58:38.786Z,-0.54
2019-03-09T14:59:50.963Z,-0.62
2019-03-09T15:01:00.976Z,-0.78
2019-03-09T15:02:10.995Z,-0.74
2019-03-09T15:03:20.920Z,-0.77
2019-03-09T15:04:30.837Z,-0.84
2019-03-09T15:05:40.503Z,-0.94